sensor_id;sensor_type;location;lat;lon;timestamp;temperature;humidity
67974;DHT22;54756;51.140;6.952;2023-04-01T00:00:39;9.30;98.00
67974;DHT22;54756;51.140;6.952;2023-04-01T00:02:40;9.30;98.00
67974;DHT22;54756;51.140;6.952;2023-04-01T00:04:40;9.30;97.90
67974;DHT22;54756;51.140;6.952;2023-04-01T00:06:41;9.30;97.80
67974;DHT22;54756;51.140;6.952;2023-04-01T00:08:42;9.30;97.70
67974;DHT22;54756;51.140;6.952;2023-04-01T00:10:43;9.30;97.60
67974;DHT22;54756;51.140;6.952;2023-04-01T00:12:43;9.30;97.70
67974;DHT22;54756;51.140;6.952;2023-04-01T00:14:44;9.30;97.50
67974;DHT22;54756;51.140;6.952;2023-04-01T00:16:45;9.30;97.30
67974;DHT22;54756;51.140;6.952;2023-04-01T00:18:45;9.40;97.30
67974;DHT22;54756;51.140;6.952;2023-04-01T00:20:49;9.40;97.20
67974;DHT22;54756;51.140;6.952;2023-04-01T00:22:50;9.50;96.90
67974;DHT22;54756;51.140;6.952;2023-04-01T00:24:50;9.60;96.80
67974;DHT22;54756;51.140;6.952;2023-04-01T00:26:51;9.70;96.60
67974;DHT22;54756;51.140;6.952;2023-04-01T00:28:52;9.80;96.10
67974;DHT22;54756;51.140;6.952;2023-04-01T00:30:52;9.80;96.00
67974;DHT22;54756;51.140;6.952;2023-04-01T00:32:54;9.90;95.80
67974;DHT22;54756;51.140;6.952;2023-04-01T00:34:54;9.90;95.50
67974;DHT22;54756;51.140;6.952;2023-04-01T00:36:55;9.90;95.60
67974;DHT22;54756;51.140;6.952;2023-04-01T00:38:57;9.90;95.50
67974;DHT22;54756;51.140;6.952;2023-04-01T00:40:59;9.90;95.60
67974;DHT22;54756;51.140;6.952;2023-04-01T00:43:00;9.80;95.40
67974;DHT22;54756;51.140;6.952;2023-04-01T00:45:28;9.80;95.60
67974;DHT22;54756;51.140;6.952;2023-04-01T00:47:29;9.80;95.70
67974;DHT22;54756;51.140;6.952;2023-04-01T00:49:37;9.80;95.70
67974;DHT22;54756;51.140;6.952;2023-04-01T00:51:39;9.80;95.60
67974;DHT22;54756;51.140;6.952;2023-04-01T00:53:47;9.80;95.70
67974;DHT22;54756;51.140;6.952;2023-04-01T00:56:00;9.70;95.70
67974;DHT22;54756;51.140;6.952;2023-04-01T00:58:03;9.70;95.80
67974;DHT22;54756;51.140;6.952;2023-04-01T01:00:09;9.70;95.90
67974;DHT22;54756;51.140;6.952;2023-04-01T01:02:12;9.70;96.00
67974;DHT22;54756;51.140;6.952;2023-04-01T01:04:31;9.70;95.80
67974;DHT22;54756;51.140;6.952;2023-04-01T01:06:57;9.70;95.80
67974;DHT22;54756;51.140;6.952;2023-04-01T01:11:10;9.90;95.30
67974;DHT22;54756;51.140;6.952;2023-04-01T01:13:30;9.90;95.10
67974;DHT22;54756;51.140;6.952;2023-04-01T01:25:08;9.90;95.10
67974;DHT22;54756;51.140;6.952;2023-04-01T01:27:15;9.80;95.40
67974;DHT22;54756;51.140;6.952;2023-04-01T01:34:15;9.70;96.00
67974;DHT22;54756;51.140;6.952;2023-04-01T01:36:20;9.60;96.20
67974;DHT22;54756;51.140;6.952;2023-04-01T01:38:23;9.50;96.20
67974;DHT22;54756;51.140;6.952;2023-04-01T01:40:26;9.50;96.20
67974;DHT22;54756;51.140;6.952;2023-04-01T01:42:29;9.50;96.40
67974;DHT22;54756;51.140;6.952;2023-04-01T01:44:32;9.50;96.60
67974;DHT22;54756;51.140;6.952;2023-04-01T01:46:34;9.40;96.90
67974;DHT22;54756;51.140;6.952;2023-04-01T01:48:36;9.40;96.90
67974;DHT22;54756;51.140;6.952;2023-04-01T01:50:38;9.40;96.90
67974;DHT22;54756;51.140;6.952;2023-04-01T01:52:40;9.40;96.90
67974;DHT22;54756;51.140;6.952;2023-04-01T01:54:52;9.40;97.20
67974;DHT22;54756;51.140;6.952;2023-04-01T01:57:06;9.40;97.30
67974;DHT22;54756;51.140;6.952;2023-04-01T01:59:10;9.30;97.40
67974;DHT22;54756;51.140;6.952;2023-04-01T02:01:15;9.30;97.80
67974;DHT22;54756;51.140;6.952;2023-04-01T02:03:17;9.30;98.10
67974;DHT22;54756;51.140;6.952;2023-04-01T02:05:21;9.30;98.40
67974;DHT22;54756;51.140;6.952;2023-04-01T02:07:27;9.20;98.80
67974;DHT22;54756;51.140;6.952;2023-04-01T02:09:31;9.20;99.10
67974;DHT22;54756;51.140;6.952;2023-04-01T02:12:07;9.20;99.40
67974;DHT22;54756;51.140;6.952;2023-04-01T02:14:21;9.10;99.60
67974;DHT22;54756;51.140;6.952;2023-04-01T02:16:42;9.10;99.90
67974;DHT22;54756;51.140;6.952;2023-04-01T02:18:45;9.00;99.90
67974;DHT22;54756;51.140;6.952;2023-04-01T02:20:47;9.00;99.90
67974;DHT22;54756;51.140;6.952;2023-04-01T02:22:53;9.00;99.90
67974;DHT22;54756;51.140;6.952;2023-04-01T02:24:58;9.00;99.90
67974;DHT22;54756;51.140;6.952;2023-04-01T02:27:00;8.90;99.90
67974;DHT22;54756;51.140;6.952;2023-04-01T02:29:01;8.90;99.90
67974;DHT22;54756;51.140;6.952;2023-04-01T02:31:02;8.90;99.90
67974;DHT22;54756;51.140;6.952;2023-04-01T02:33:05;8.90;99.90
67974;DHT22;54756;51.140;6.952;2023-04-01T02:35:11;8.90;99.90
67974;DHT22;54756;51.140;6.952;2023-04-01T02:37:13;8.90;99.90
67974;DHT22;54756;51.140;6.952;2023-04-01T02:39:14;8.90;99.90
67974;DHT22;54756;51.140;6.952;2023-04-01T02:41:15;8.90;99.90
67974;DHT22;54756;51.140;6.952;2023-04-01T02:43:16;8.80;99.90
67974;DHT22;54756;51.140;6.952;2023-04-01T02:45:17;8.80;99.90
67974;DHT22;54756;51.140;6.952;2023-04-01T02:47:17;8.80;99.90
67974;DHT22;54756;51.140;6.952;2023-04-01T02:49:18;8.80;99.90
67974;DHT22;54756;51.140;6.952;2023-04-01T02:51:18;8.70;99.90
67974;DHT22;54756;51.140;6.952;2023-04-01T02:53:19;8.70;99.90
67974;DHT22;54756;51.140;6.952;2023-04-01T02:55:20;8.70;99.90
67974;DHT22;54756;51.140;6.952;2023-04-01T02:57:20;8.70;99.90
67974;DHT22;54756;51.140;6.952;2023-04-01T02:59:21;8.70;99.90
67974;DHT22;54756;51.140;6.952;2023-04-01T03:01:22;8.70;99.90
67974;DHT22;54756;51.140;6.952;2023-04-01T03:03:23;8.60;99.90
67974;DHT22;54756;51.140;6.952;2023-04-01T03:05:23;8.60;99.90
67974;DHT22;54756;51.140;6.952;2023-04-01T03:07:24;8.60;99.90
67974;DHT22;54756;51.140;6.952;2023-04-01T03:09:25;8.60;99.90
67974;DHT22;54756;51.140;6.952;2023-04-01T03:11:26;8.60;99.90
67974;DHT22;54756;51.140;6.952;2023-04-01T03:13:26;8.60;99.90
67974;DHT22;54756;51.140;6.952;2023-04-01T03:15:27;8.60;99.90
67974;DHT22;54756;51.140;6.952;2023-04-01T03:17:28;8.60;99.90
67974;DHT22;54756;51.140;6.952;2023-04-01T03:19:28;8.60;99.90
67974;DHT22;54756;51.140;6.952;2023-04-01T03:21:29;8.60;99.90
67974;DHT22;54756;51.140;6.952;2023-04-01T03:23:29;8.60;99.90
67974;DHT22;54756;51.140;6.952;2023-04-01T03:25:30;8.70;99.90
67974;DHT22;54756;51.140;6.952;2023-04-01T03:27:31;8.70;99.90
67974;DHT22;54756;51.140;6.952;2023-04-01T03:29:31;8.70;99.90
67974;DHT22;54756;51.140;6.952;2023-04-01T03:31:32;8.70;99.90
67974;DHT22;54756;51.140;6.952;2023-04-01T03:33:32;8.70;99.90
67974;DHT22;54756;51.140;6.952;2023-04-01T03:35:33;8.70;99.90
67974;DHT22;54756;51.140;6.952;2023-04-01T03:37:36;8.70;99.90
67974;DHT22;54756;51.140;6.952;2023-04-01T03:39:37;8.80;99.90
67974;DHT22;54756;51.140;6.952;2023-04-01T03:41:37;8.80;99.90
67974;DHT22;54756;51.140;6.952;2023-04-01T03:43:38;8.80;99.90
67974;DHT22;54756;51.140;6.952;2023-04-01T03:45:46;8.80;99.90
67974;DHT22;54756;51.140;6.952;2023-04-01T03:47:47;8.80;99.90
67974;DHT22;54756;51.140;6.952;2023-04-01T03:49:47;8.90;99.90
67974;DHT22;54756;51.140;6.952;2023-04-01T03:51:48;8.90;99.90
67974;DHT22;54756;51.140;6.952;2023-04-01T03:53:49;8.90;99.90
67974;DHT22;54756;51.140;6.952;2023-04-01T03:55:49;8.90;99.90
67974;DHT22;54756;51.140;6.952;2023-04-01T03:57:51;8.90;99.90
67974;DHT22;54756;51.140;6.952;2023-04-01T03:59:52;8.90;99.90
67974;DHT22;54756;51.140;6.952;2023-04-01T04:01:52;8.90;99.90
67974;DHT22;54756;51.140;6.952;2023-04-01T04:03:53;8.90;99.90
67974;DHT22;54756;51.140;6.952;2023-04-01T04:05:53;8.90;99.90
67974;DHT22;54756;51.140;6.952;2023-04-01T04:07:54;8.90;99.90
67974;DHT22;54756;51.140;6.952;2023-04-01T04:09:55;8.90;99.90
67974;DHT22;54756;51.140;6.952;2023-04-01T04:11:55;8.90;99.90
67974;DHT22;54756;51.140;6.952;2023-04-01T04:13:56;8.90;99.90
67974;DHT22;54756;51.140;6.952;2023-04-01T04:15:56;8.90;99.90
67974;DHT22;54756;51.140;6.952;2023-04-01T04:17:58;8.90;99.90
67974;DHT22;54756;51.140;6.952;2023-04-01T04:19:58;8.80;99.90
67974;DHT22;54756;51.140;6.952;2023-04-01T04:21:59;8.80;99.90
67974;DHT22;54756;51.140;6.952;2023-04-01T04:24:02;8.80;99.90
67974;DHT22;54756;51.140;6.952;2023-04-01T04:26:07;8.80;99.90
67974;DHT22;54756;51.140;6.952;2023-04-01T04:28:08;8.80;99.90
67974;DHT22;54756;51.140;6.952;2023-04-01T04:30:09;8.80;99.90
67974;DHT22;54756;51.140;6.952;2023-04-01T04:32:10;8.80;99.90
67974;DHT22;54756;51.140;6.952;2023-04-01T04:34:10;8.80;99.90
67974;DHT22;54756;51.140;6.952;2023-04-01T04:36:11;8.80;99.90
67974;DHT22;54756;51.140;6.952;2023-04-01T04:38:11;8.80;99.90
67974;DHT22;54756;51.140;6.952;2023-04-01T04:40:12;8.80;99.90
67974;DHT22;54756;51.140;6.952;2023-04-01T04:42:13;8.80;99.90
67974;DHT22;54756;51.140;6.952;2023-04-01T04:44:13;8.80;99.90
67974;DHT22;54756;51.140;6.952;2023-04-01T04:46:14;8.80;99.90
67974;DHT22;54756;51.140;6.952;2023-04-01T04:48:15;8.80;99.90
67974;DHT22;54756;51.140;6.952;2023-04-01T04:50:19;8.80;99.90
67974;DHT22;54756;51.140;6.952;2023-04-01T04:52:19;8.80;99.90
67974;DHT22;54756;51.140;6.952;2023-04-01T04:54:20;8.80;99.90
67974;DHT22;54756;51.140;6.952;2023-04-01T04:56:21;8.80;99.90
67974;DHT22;54756;51.140;6.952;2023-04-01T04:58:22;8.80;99.90
67974;DHT22;54756;51.140;6.952;2023-04-01T05:00:23;8.80;99.90
67974;DHT22;54756;51.140;6.952;2023-04-01T05:02:23;8.80;99.90
67974;DHT22;54756;51.140;6.952;2023-04-01T05:04:24;8.80;99.90
67974;DHT22;54756;51.140;6.952;2023-04-01T05:06:24;8.80;99.90
67974;DHT22;54756;51.140;6.952;2023-04-01T05:08:25;8.80;99.90
67974;DHT22;54756;51.140;6.952;2023-04-01T05:10:26;8.80;99.90
67974;DHT22;54756;51.140;6.952;2023-04-01T05:12:27;8.80;99.90
67974;DHT22;54756;51.140;6.952;2023-04-01T05:14:27;8.80;99.90
67974;DHT22;54756;51.140;6.952;2023-04-01T05:16:28;8.80;99.90
67974;DHT22;54756;51.140;6.952;2023-04-01T05:18:28;8.80;99.90
67974;DHT22;54756;51.140;6.952;2023-04-01T05:20:29;8.80;99.90
67974;DHT22;54756;51.140;6.952;2023-04-01T05:22:30;8.80;99.90
67974;DHT22;54756;51.140;6.952;2023-04-01T05:24:30;8.90;99.90
67974;DHT22;54756;51.140;6.952;2023-04-01T05:26:31;8.90;99.90
67974;DHT22;54756;51.140;6.952;2023-04-01T05:28:32;8.90;99.90
67974;DHT22;54756;51.140;6.952;2023-04-01T05:30:33;8.90;99.90
67974;DHT22;54756;51.140;6.952;2023-04-01T05:32:33;8.90;99.90
67974;DHT22;54756;51.140;6.952;2023-04-01T05:34:34;8.90;99.90
67974;DHT22;54756;51.140;6.952;2023-04-01T05:36:35;8.90;99.90
67974;DHT22;54756;51.140;6.952;2023-04-01T05:38:36;9.00;99.90
67974;DHT22;54756;51.140;6.952;2023-04-01T05:40:36;9.00;99.90
67974;DHT22;54756;51.140;6.952;2023-04-01T05:42:37;9.00;99.90
67974;DHT22;54756;51.140;6.952;2023-04-01T05:44:37;9.00;99.90
67974;DHT22;54756;51.140;6.952;2023-04-01T05:46:38;9.00;99.90
67974;DHT22;54756;51.140;6.952;2023-04-01T05:48:38;9.00;99.90
67974;DHT22;54756;51.140;6.952;2023-04-01T05:50:40;9.00;99.90
67974;DHT22;54756;51.140;6.952;2023-04-01T05:52:41;9.00;99.90
67974;DHT22;54756;51.140;6.952;2023-04-01T05:54:42;9.00;99.90
67974;DHT22;54756;51.140;6.952;2023-04-01T05:56:43;9.00;99.90
67974;DHT22;54756;51.140;6.952;2023-04-01T05:58:47;9.00;99.90
67974;DHT22;54756;51.140;6.952;2023-04-01T06:00:50;9.10;99.90
67974;DHT22;54756;51.140;6.952;2023-04-01T06:02:51;9.10;99.90
67974;DHT22;54756;51.140;6.952;2023-04-01T06:05:18;9.10;99.90
67974;DHT22;54756;51.140;6.952;2023-04-01T06:07:19;9.10;99.90
67974;DHT22;54756;51.140;6.952;2023-04-01T06:09:26;9.10;99.90
67974;DHT22;54756;51.140;6.952;2023-04-01T06:16:20;9.10;99.90
67974;DHT22;54756;51.140;6.952;2023-04-01T06:21:27;9.00;99.90
67974;DHT22;54756;51.140;6.952;2023-04-01T06:23:43;9.00;99.90
67974;DHT22;54756;51.140;6.952;2023-04-01T06:26:17;9.10;99.90
67974;DHT22;54756;51.140;6.952;2023-04-01T06:32:48;9.10;99.90
67974;DHT22;54756;51.140;6.952;2023-04-01T06:48:40;9.30;99.90
67974;DHT22;54756;51.140;6.952;2023-04-01T06:55:18;9.30;99.90
67974;DHT22;54756;51.140;6.952;2023-04-01T06:57:30;9.40;99.90
67974;DHT22;54756;51.140;6.952;2023-04-01T06:59:35;9.40;99.90
67974;DHT22;54756;51.140;6.952;2023-04-01T07:01:52;9.40;99.90
67974;DHT22;54756;51.140;6.952;2023-04-01T07:03:57;9.40;99.90
67974;DHT22;54756;51.140;6.952;2023-04-01T07:06:08;9.40;99.90
67974;DHT22;54756;51.140;6.952;2023-04-01T07:08:13;9.40;99.90
67974;DHT22;54756;51.140;6.952;2023-04-01T07:12:47;9.40;99.90
67974;DHT22;54756;51.140;6.952;2023-04-01T07:14:49;9.40;99.90
67974;DHT22;54756;51.140;6.952;2023-04-01T07:16:56;9.50;99.90
67974;DHT22;54756;51.140;6.952;2023-04-01T07:19:08;9.50;99.90
67974;DHT22;54756;51.140;6.952;2023-04-01T07:21:24;9.50;99.90
67974;DHT22;54756;51.140;6.952;2023-04-01T07:23:38;9.50;99.90
67974;DHT22;54756;51.140;6.952;2023-04-01T07:25:44;9.50;99.90
67974;DHT22;54756;51.140;6.952;2023-04-01T07:27:46;9.40;99.90
67974;DHT22;54756;51.140;6.952;2023-04-01T07:29:47;9.40;99.90
67974;DHT22;54756;51.140;6.952;2023-04-01T07:32:07;9.50;99.90
67974;DHT22;54756;51.140;6.952;2023-04-01T07:51:38;9.70;99.90
67974;DHT22;54756;51.140;6.952;2023-04-01T07:56:01;9.80;99.90
67974;DHT22;54756;51.140;6.952;2023-04-01T08:00:27;9.80;99.90
67974;DHT22;54756;51.140;6.952;2023-04-01T08:05:19;9.70;99.90
67974;DHT22;54756;51.140;6.952;2023-04-01T08:12:12;9.60;99.90
67974;DHT22;54756;51.140;6.952;2023-04-01T08:14:36;9.60;99.90
67974;DHT22;54756;51.140;6.952;2023-04-01T08:21:24;9.50;99.90
67974;DHT22;54756;51.140;6.952;2023-04-01T08:23:31;9.60;99.90
67974;DHT22;54756;51.140;6.952;2023-04-01T08:25:34;9.60;99.90
67974;DHT22;54756;51.140;6.952;2023-04-01T08:27:44;9.60;99.90
67974;DHT22;54756;51.140;6.952;2023-04-01T08:32:12;9.70;99.90
67974;DHT22;54756;51.140;6.952;2023-04-01T08:34:47;9.70;99.90
67974;DHT22;54756;51.140;6.952;2023-04-01T08:36:59;9.70;99.90
67974;DHT22;54756;51.140;6.952;2023-04-01T08:39:10;9.70;99.90
67974;DHT22;54756;51.140;6.952;2023-04-01T08:41:41;9.80;99.90
67974;DHT22;54756;51.140;6.952;2023-04-01T08:48:56;9.80;99.90
67974;DHT22;54756;51.140;6.952;2023-04-01T08:56:21;9.90;99.90
67974;DHT22;54756;51.140;6.952;2023-04-01T09:00:56;9.90;99.90
67974;DHT22;54756;51.140;6.952;2023-04-01T09:03:37;9.90;99.90
67974;DHT22;54756;51.140;6.952;2023-04-01T09:08:41;9.90;99.90
67974;DHT22;54756;51.140;6.952;2023-04-01T09:11:27;9.90;99.90
67974;DHT22;54756;51.140;6.952;2023-04-01T09:14:00;9.90;99.90
67974;DHT22;54756;51.140;6.952;2023-04-01T09:16:23;10.00;99.90
67974;DHT22;54756;51.140;6.952;2023-04-01T09:28:19;10.30;99.90
67974;DHT22;54756;51.140;6.952;2023-04-01T09:32:42;10.30;99.90
67974;DHT22;54756;51.140;6.952;2023-04-01T09:37:35;10.30;99.90
67974;DHT22;54756;51.140;6.952;2023-04-01T09:39:38;10.10;99.90
67974;DHT22;54756;51.140;6.952;2023-04-01T09:44:37;10.00;99.90
67974;DHT22;54756;51.140;6.952;2023-04-01T10:05:50;9.70;99.90
67974;DHT22;54756;51.140;6.952;2023-04-01T10:15:20;9.80;99.90
67974;DHT22;54756;51.140;6.952;2023-04-01T10:19:49;10.10;99.90
67974;DHT22;54756;51.140;6.952;2023-04-01T10:36:53;10.70;99.90
67974;DHT22;54756;51.140;6.952;2023-04-01T10:44:29;10.60;99.90
67974;DHT22;54756;51.140;6.952;2023-04-01T10:52:00;10.50;99.90
67974;DHT22;54756;51.140;6.952;2023-04-01T10:54:49;10.60;99.90
67974;DHT22;54756;51.140;6.952;2023-04-01T10:56:54;10.60;99.90
67974;DHT22;54756;51.140;6.952;2023-04-01T10:59:15;10.60;99.90
67974;DHT22;54756;51.140;6.952;2023-04-01T11:01:58;10.60;99.90
67974;DHT22;54756;51.140;6.952;2023-04-01T11:07:04;10.70;99.90
67974;DHT22;54756;51.140;6.952;2023-04-01T11:12:11;10.80;99.90
67974;DHT22;54756;51.140;6.952;2023-04-01T11:15:02;10.80;99.90
67974;DHT22;54756;51.140;6.952;2023-04-01T11:29:47;11.00;99.90
67974;DHT22;54756;51.140;6.952;2023-04-01T11:37:12;11.00;99.90
67974;DHT22;54756;51.140;6.952;2023-04-01T11:39:24;11.00;99.90
67974;DHT22;54756;51.140;6.952;2023-04-01T11:43:37;11.00;99.90
67974;DHT22;54756;51.140;6.952;2023-04-01T11:45:53;11.00;99.90
67974;DHT22;54756;51.140;6.952;2023-04-01T11:50:40;10.90;99.90
67974;DHT22;54756;51.140;6.952;2023-04-01T11:53:12;10.90;99.90
67974;DHT22;54756;51.140;6.952;2023-04-01T11:55:28;10.80;99.90
67974;DHT22;54756;51.140;6.952;2023-04-01T12:04:44;10.60;99.90
67974;DHT22;54756;51.140;6.952;2023-04-01T12:14:20;10.80;99.90
67974;DHT22;54756;51.140;6.952;2023-04-01T12:16:51;10.80;99.90
67974;DHT22;54756;51.140;6.952;2023-04-01T12:25:46;10.70;99.90
67974;DHT22;54756;51.140;6.952;2023-04-01T12:33:27;10.70;99.90
67974;DHT22;54756;51.140;6.952;2023-04-01T12:35:13;10.60;99.90
67974;DHT22;54756;51.140;6.952;2023-04-01T12:37:21;10.50;99.90
67974;DHT22;54756;51.140;6.952;2023-04-01T13:02:00;10.30;99.90
67974;DHT22;54756;51.140;6.952;2023-04-01T13:06:44;10.20;99.90
67974;DHT22;54756;51.140;6.952;2023-04-01T13:11:20;10.20;99.90
67974;DHT22;54756;51.140;6.952;2023-04-01T13:22:17;10.40;99.90
67974;DHT22;54756;51.140;6.952;2023-04-01T13:24:47;10.40;99.90
67974;DHT22;54756;51.140;6.952;2023-04-01T13:29:27;10.60;99.90
67974;DHT22;54756;51.140;6.952;2023-04-01T13:42:13;10.70;99.90
67974;DHT22;54756;51.140;6.952;2023-04-01T13:44:02;10.70;99.90
67974;DHT22;54756;51.140;6.952;2023-04-01T13:49:08;10.80;99.90
67974;DHT22;54756;51.140;6.952;2023-04-01T13:51:26;10.90;99.90
67974;DHT22;54756;51.140;6.952;2023-04-01T14:09:45;11.10;99.90
67974;DHT22;54756;51.140;6.952;2023-04-01T14:12:09;11.10;99.90
67974;DHT22;54756;51.140;6.952;2023-04-01T14:14:36;11.10;99.90
67974;DHT22;54756;51.140;6.952;2023-04-01T14:21:39;11.00;99.90
67974;DHT22;54756;51.140;6.952;2023-04-01T14:43:04;11.00;99.90
67974;DHT22;54756;51.140;6.952;2023-04-01T14:48:00;10.90;99.90
67974;DHT22;54756;51.140;6.952;2023-04-01T14:50:11;10.80;99.90
67974;DHT22;54756;51.140;6.952;2023-04-01T14:52:28;10.80;99.90
67974;DHT22;54756;51.140;6.952;2023-04-01T14:54:37;10.70;99.90
67974;DHT22;54756;51.140;6.952;2023-04-01T14:56:44;10.70;99.90
67974;DHT22;54756;51.140;6.952;2023-04-01T14:58:50;10.60;99.90
67974;DHT22;54756;51.140;6.952;2023-04-01T15:03:19;10.50;99.90
67974;DHT22;54756;51.140;6.952;2023-04-01T15:12:51;10.80;99.90
67974;DHT22;54756;51.140;6.952;2023-04-01T15:19:21;11.10;99.90
67974;DHT22;54756;51.140;6.952;2023-04-01T15:26:17;11.30;99.90
67974;DHT22;54756;51.140;6.952;2023-04-01T15:31:09;11.30;99.90
67974;DHT22;54756;51.140;6.952;2023-04-01T15:33:22;11.30;99.90
67974;DHT22;54756;51.140;6.952;2023-04-01T15:40:22;11.40;99.90
67974;DHT22;54756;51.140;6.952;2023-04-01T15:42:55;11.20;99.90
67974;DHT22;54756;51.140;6.952;2023-04-01T15:45:14;11.20;99.90
67974;DHT22;54756;51.140;6.952;2023-04-01T15:49:39;11.10;99.90
67974;DHT22;54756;51.140;6.952;2023-04-01T15:51:48;11.10;99.90
67974;DHT22;54756;51.140;6.952;2023-04-01T15:54:13;11.00;99.90
67974;DHT22;54756;51.140;6.952;2023-04-01T16:17:27;10.30;99.90
67974;DHT22;54756;51.140;6.952;2023-04-01T16:19:51;10.30;99.90
67974;DHT22;54756;51.140;6.952;2023-04-01T16:21:53;10.30;99.90
67974;DHT22;54756;51.140;6.952;2023-04-01T16:26:35;10.10;99.90
67974;DHT22;54756;51.140;6.952;2023-04-01T16:28:42;10.10;99.90
67974;DHT22;54756;51.140;6.952;2023-04-01T16:33:35;10.00;99.90
67974;DHT22;54756;51.140;6.952;2023-04-01T16:42:16;9.80;99.90
67974;DHT22;54756;51.140;6.952;2023-04-01T16:44:24;9.80;99.90
67974;DHT22;54756;51.140;6.952;2023-04-01T16:46:45;9.80;99.90
67974;DHT22;54756;51.140;6.952;2023-04-01T16:50:59;9.70;99.90
67974;DHT22;54756;51.140;6.952;2023-04-01T16:53:09;9.80;99.90
67974;DHT22;54756;51.140;6.952;2023-04-01T16:55:21;9.80;99.90
67974;DHT22;54756;51.140;6.952;2023-04-01T16:59:37;9.80;99.90
67974;DHT22;54756;51.140;6.952;2023-04-01T17:01:44;9.80;99.90
67974;DHT22;54756;51.140;6.952;2023-04-01T17:03:57;9.70;99.90
67974;DHT22;54756;51.140;6.952;2023-04-01T17:10:57;9.70;99.90
67974;DHT22;54756;51.140;6.952;2023-04-01T17:13:35;9.70;99.90
67974;DHT22;54756;51.140;6.952;2023-04-01T17:22:53;9.70;99.90
67974;DHT22;54756;51.140;6.952;2023-04-01T17:27:38;9.60;99.90
67974;DHT22;54756;51.140;6.952;2023-04-01T17:35:13;9.60;99.90
67974;DHT22;54756;51.140;6.952;2023-04-01T17:37:37;9.60;99.90
67974;DHT22;54756;51.140;6.952;2023-04-01T17:45:10;9.50;99.90
67974;DHT22;54756;51.140;6.952;2023-04-01T17:49:25;9.50;99.90
67974;DHT22;54756;51.140;6.952;2023-04-01T17:54:04;9.50;99.90
67974;DHT22;54756;51.140;6.952;2023-04-01T18:03:24;9.40;99.90
67974;DHT22;54756;51.140;6.952;2023-04-01T18:08:09;9.40;99.90
67974;DHT22;54756;51.140;6.952;2023-04-01T18:10:34;9.40;99.90
67974;DHT22;54756;51.140;6.952;2023-04-01T18:20:35;9.40;99.90
67974;DHT22;54756;51.140;6.952;2023-04-01T18:22:41;9.40;99.90
67974;DHT22;54756;51.140;6.952;2023-04-01T18:25:01;9.30;99.90
67974;DHT22;54756;51.140;6.952;2023-04-01T18:27:16;9.30;99.90
67974;DHT22;54756;51.140;6.952;2023-04-01T18:29:32;9.30;99.90
67974;DHT22;54756;51.140;6.952;2023-04-01T18:31:40;9.30;99.90
67974;DHT22;54756;51.140;6.952;2023-04-01T18:38:30;9.20;99.90
67974;DHT22;54756;51.140;6.952;2023-04-01T18:40:38;9.20;99.90
67974;DHT22;54756;51.140;6.952;2023-04-01T18:52:43;9.10;99.90
67974;DHT22;54756;51.140;6.952;2023-04-01T18:55:14;9.10;99.90
67974;DHT22;54756;51.140;6.952;2023-04-01T18:57:14;9.10;99.90
67974;DHT22;54756;51.140;6.952;2023-04-01T18:59:27;9.00;99.90
67974;DHT22;54756;51.140;6.952;2023-04-01T19:06:53;9.00;99.90
67974;DHT22;54756;51.140;6.952;2023-04-01T19:08:55;9.00;99.90
67974;DHT22;54756;51.140;6.952;2023-04-01T19:13:41;9.00;99.90
67974;DHT22;54756;51.140;6.952;2023-04-01T19:16:02;9.00;99.90
67974;DHT22;54756;51.140;6.952;2023-04-01T19:18:19;9.00;99.90
67974;DHT22;54756;51.140;6.952;2023-04-01T19:20:51;9.00;99.90
67974;DHT22;54756;51.140;6.952;2023-04-01T19:26:09;9.00;99.90
67974;DHT22;54756;51.140;6.952;2023-04-01T19:37:54;9.10;99.90
67974;DHT22;54756;51.140;6.952;2023-04-01T19:47:07;9.00;99.90
67974;DHT22;54756;51.140;6.952;2023-04-01T19:49:35;9.00;99.90
67974;DHT22;54756;51.140;6.952;2023-04-01T19:56:19;8.90;99.90
67974;DHT22;54756;51.140;6.952;2023-04-01T20:00:54;8.90;99.90
67974;DHT22;54756;51.140;6.952;2023-04-01T20:07:44;9.00;99.90
67974;DHT22;54756;51.140;6.952;2023-04-01T20:10:02;8.90;99.90
67974;DHT22;54756;51.140;6.952;2023-04-01T20:16:53;8.90;99.90
67974;DHT22;54756;51.140;6.952;2023-04-01T20:18:59;8.90;99.90
67974;DHT22;54756;51.140;6.952;2023-04-01T20:21:15;8.90;99.90
67974;DHT22;54756;51.140;6.952;2023-04-01T20:23:39;8.90;99.90
67974;DHT22;54756;51.140;6.952;2023-04-01T20:25:55;8.90;99.90
67974;DHT22;54756;51.140;6.952;2023-04-01T20:37:18;8.80;99.90
67974;DHT22;54756;51.140;6.952;2023-04-01T20:43:57;8.80;99.90
67974;DHT22;54756;51.140;6.952;2023-04-01T20:46:51;8.90;99.90
67974;DHT22;54756;51.140;6.952;2023-04-01T20:51:06;8.80;99.90
67974;DHT22;54756;51.140;6.952;2023-04-01T20:53:20;8.90;99.90
67974;DHT22;54756;51.140;6.952;2023-04-01T21:03:06;8.90;99.90
67974;DHT22;54756;51.140;6.952;2023-04-01T21:05:36;9.00;99.90
67974;DHT22;54756;51.140;6.952;2023-04-01T21:07:55;9.00;99.90
67974;DHT22;54756;51.140;6.952;2023-04-01T21:12:51;9.00;99.90
67974;DHT22;54756;51.140;6.952;2023-04-01T21:19:53;9.00;99.90
67974;DHT22;54756;51.140;6.952;2023-04-01T21:24:47;9.00;99.90
67974;DHT22;54756;51.140;6.952;2023-04-01T21:32:00;8.90;99.90
67974;DHT22;54756;51.140;6.952;2023-04-01T21:37:00;8.90;99.90
67974;DHT22;54756;51.140;6.952;2023-04-01T21:43:35;8.90;99.90
67974;DHT22;54756;51.140;6.952;2023-04-01T21:52:16;9.00;99.90
67974;DHT22;54756;51.140;6.952;2023-04-01T22:07:39;9.10;99.90
67974;DHT22;54756;51.140;6.952;2023-04-01T22:12:17;9.10;99.90
67974;DHT22;54756;51.140;6.952;2023-04-01T22:17:04;9.20;99.90
67974;DHT22;54756;51.140;6.952;2023-04-01T22:19:24;9.20;99.90
67974;DHT22;54756;51.140;6.952;2023-04-01T22:21:58;9.20;99.90
67974;DHT22;54756;51.140;6.952;2023-04-01T22:26:33;9.20;99.90
67974;DHT22;54756;51.140;6.952;2023-04-01T22:30:51;9.30;99.90
67974;DHT22;54756;51.140;6.952;2023-04-01T22:35:33;9.30;99.90
67974;DHT22;54756;51.140;6.952;2023-04-01T22:38:01;9.20;99.90
67974;DHT22;54756;51.140;6.952;2023-04-01T22:40:13;9.30;99.90
67974;DHT22;54756;51.140;6.952;2023-04-01T22:42:21;9.30;99.90
67974;DHT22;54756;51.140;6.952;2023-04-01T22:47:28;9.30;99.90
67974;DHT22;54756;51.140;6.952;2023-04-01T22:49:42;9.30;99.90
67974;DHT22;54756;51.140;6.952;2023-04-01T22:52:03;9.30;99.90
67974;DHT22;54756;51.140;6.952;2023-04-01T22:54:15;9.20;99.90
67974;DHT22;54756;51.140;6.952;2023-04-01T22:56:33;9.20;99.90
67974;DHT22;54756;51.140;6.952;2023-04-01T22:58:42;9.20;99.90
67974;DHT22;54756;51.140;6.952;2023-04-01T23:00:52;9.20;99.90
67974;DHT22;54756;51.140;6.952;2023-04-01T23:03:29;9.10;99.90
67974;DHT22;54756;51.140;6.952;2023-04-01T23:05:31;9.10;99.90
67974;DHT22;54756;51.140;6.952;2023-04-01T23:10:14;9.10;99.90
67974;DHT22;54756;51.140;6.952;2023-04-01T23:12:16;9.00;99.90
67974;DHT22;54756;51.140;6.952;2023-04-01T23:16:37;9.00;99.90
67974;DHT22;54756;51.140;6.952;2023-04-01T23:19:06;9.00;99.90
67974;DHT22;54756;51.140;6.952;2023-04-01T23:21:21;9.00;99.90
67974;DHT22;54756;51.140;6.952;2023-04-01T23:23:42;9.00;99.90